createdAt,value
2019-06-20T00:01:29.299Z,5.50
2019-06-20T00:04:00.614Z,5.15
2019-06-20T00:06:31.775Z,5.12
2019-06-20T00:09:03.153Z,5.22
2019-06-20T00:11:36.122Z,9.65
2019-06-20T00:14:07.276Z,5.20
2019-06-20T00:16:38.551Z,5.50
2019-06-20T00:19:09.820Z,5.15
2019-06-20T00:21:41.033Z,4.80
2019-06-20T00:24:12.279Z,4.80
2019-06-20T00:26:43.510Z,4.80
2019-06-20T00:29:14.770Z,4.70
2019-06-20T00:31:46.002Z,5.10
2019-06-20T00:34:17.339Z,4.47
2019-06-20T00:36:51.251Z,5.10
2019-06-20T00:39:21.442Z,4.72
2019-06-20T00:41:52.681Z,4.57
2019-06-20T00:44:23.950Z,5.50
2019-06-20T00:46:55.175Z,5.60
2019-06-20T00:49:26.387Z,5.55
2019-06-20T00:51:57.655Z,5.37
2019-06-20T00:54:28.878Z,5.12
2019-06-20T00:57:00.020Z,6.47
2019-06-20T00:59:31.178Z,5.33
2019-06-20T01:02:02.420Z,5.10
2019-06-20T01:04:33.681Z,5.08
2019-06-20T01:07:04.848Z,6.45
2019-06-20T01:09:35.990Z,5.20
2019-06-20T01:12:07.144Z,6.53
2019-06-20T01:14:38.327Z,5.15
2019-06-20T01:17:09.539Z,5.40
2019-06-20T01:19:40.795Z,5.23
2019-06-20T01:22:11.932Z,5.20
2019-06-20T01:24:43.116Z,5.75
2019-06-20T01:27:14.353Z,5.50
2019-06-20T01:29:45.549Z,5.20
2019-06-20T01:32:16.738Z,5.07
2019-06-20T01:34:48.069Z,5.45
2019-06-20T01:37:19.270Z,6.03
2019-06-20T01:39:50.443Z,6.30
2019-06-20T01:42:21.838Z,6.17
2019-06-20T01:44:53.034Z,5.87
2019-06-20T01:47:24.224Z,5.20
2019-06-20T01:49:55.423Z,5.83
2019-06-20T01:52:26.585Z,5.92
2019-06-20T01:54:57.751Z,5.92
2019-06-20T01:57:28.943Z,5.28
2019-06-20T02:00:00.101Z,5.83
2019-06-20T02:02:31.389Z,4.28
2019-06-20T02:05:02.561Z,4.83
2019-06-20T02:07:33.910Z,5.00
2019-06-20T02:10:06.512Z,7.05
2019-06-20T02:12:37.723Z,6.35
2019-06-20T02:15:08.876Z,5.10
2019-06-20T02:17:40.150Z,5.85
2019-06-20T02:20:22.850Z,6.87
2019-06-20T02:22:54.058Z,5.83
2019-06-20T02:25:25.273Z,5.35
2019-06-20T02:27:56.492Z,4.58
2019-06-20T02:30:27.760Z,4.28
2019-06-20T02:32:58.882Z,5.40
2019-06-20T02:35:30.075Z,5.08
2019-06-20T02:38:01.250Z,5.72
2019-06-20T02:40:32.427Z,5.65
2019-06-20T02:43:03.644Z,6.35
2019-06-20T02:45:38.378Z,7.10
2019-06-20T02:48:09.691Z,10.68
2019-06-20T02:50:40.991Z,6.30
2019-06-20T02:53:12.357Z,5.15
2019-06-20T02:55:43.503Z,5.40
2019-06-20T02:58:14.797Z,5.55
2019-06-20T03:00:56.982Z,6.45
2019-06-20T03:03:29.446Z,5.90
2019-06-20T03:06:00.579Z,5.53
2019-06-20T03:08:31.858Z,6.42
2019-06-20T03:11:03.046Z,5.95
2019-06-20T03:13:34.318Z,7.00
2019-06-20T03:16:07.127Z,6.60
2019-06-20T03:18:38.303Z,8.68
2019-06-20T03:21:09.554Z,7.78
2019-06-20T03:23:41.819Z,6.50
2019-06-20T03:26:13.153Z,6.92
2019-06-20T03:28:44.344Z,8.53
2019-06-20T03:31:15.508Z,7.15
2019-06-20T03:33:46.757Z,8.88
2019-06-20T03:36:17.906Z,8.95
2019-06-20T03:38:49.339Z,6.17
2019-06-20T03:41:20.499Z,7.90
2019-06-20T03:43:51.818Z,5.80
2019-06-20T03:46:23.090Z,7.40
2019-06-20T03:48:54.336Z,7.37
2019-06-20T03:51:25.593Z,5.95
2019-06-20T03:53:56.708Z,6.65
2019-06-20T03:56:27.978Z,6.37
2019-06-20T03:58:59.152Z,7.40
2019-06-20T04:01:30.605Z,8.65
2019-06-20T04:04:02.961Z,5.95
2019-06-20T04:06:34.141Z,5.97
2019-06-20T04:09:06.373Z,7.45
2019-06-20T04:11:37.739Z,6.15
2019-06-20T04:14:08.969Z,7.47
2019-06-20T04:16:40.133Z,8.05
2019-06-20T04:19:11.350Z,9.13
2019-06-20T04:21:42.631Z,6.42
2019-06-20T04:24:13.794Z,6.87
2019-06-20T04:26:44.991Z,11.48
2019-06-20T04:29:17.270Z,8.45
2019-06-20T04:31:48.504Z,9.05
2019-06-20T04:34:19.675Z,8.65
2019-06-20T04:36:50.902Z,8.35
2019-06-20T04:39:22.052Z,11.12
2019-06-20T04:41:53.236Z,12.30
2019-06-20T04:44:24.448Z,11.80
2019-06-20T04:47:01.390Z,11.20
2019-06-20T04:49:32.617Z,11.43
2019-06-20T04:52:03.842Z,10.15
2019-06-20T04:54:35.176Z,9.20
2019-06-20T04:57:06.606Z,7.20
2019-06-20T04:59:37.799Z,9.65
2019-06-20T05:02:09.039Z,9.75
2019-06-20T05:04:40.314Z,9.88
2019-06-20T05:07:18.611Z,10.90
2019-06-20T05:09:49.829Z,11.63
2019-06-20T05:12:21.137Z,7.55
2019-06-20T05:14:52.398Z,7.22
2019-06-20T05:17:23.588Z,7.87
2019-06-20T05:19:54.809Z,11.80
2019-06-20T05:22:26.976Z,8.60
2019-06-20T05:24:58.331Z,7.20
2019-06-20T05:27:29.538Z,5.50
2019-06-20T05:30:00.716Z,6.30
2019-06-20T05:32:31.942Z,8.55
2019-06-20T05:35:03.357Z,6.65
2019-06-20T05:37:34.553Z,6.80
2019-06-20T05:40:07.238Z,6.03
2019-06-20T05:42:38.459Z,5.53
2019-06-20T05:45:09.946Z,10.55
2019-06-20T05:47:42.244Z,5.83
2019-06-20T05:50:13.533Z,5.40
2019-06-20T05:52:44.682Z,6.03
2019-06-20T05:55:17.081Z,7.90
2019-06-20T05:57:48.291Z,6.90
2019-06-20T06:00:19.719Z,6.47
2019-06-20T06:02:52.625Z,8.75
2019-06-20T06:05:23.743Z,7.28
2019-06-20T06:07:54.961Z,8.30
2019-06-20T06:10:26.134Z,9.98
2019-06-20T06:12:57.323Z,11.18
2019-06-20T06:15:28.534Z,14.30
2019-06-20T06:17:59.765Z,7.97
2019-06-20T06:20:30.949Z,17.85
2019-06-20T06:23:02.349Z,9.75
2019-06-20T06:25:33.527Z,14.00
2019-06-20T06:28:04.687Z,11.05
2019-06-20T06:30:35.948Z,10.48
2019-06-20T06:33:07.086Z,9.68
2019-06-20T06:35:38.281Z,11.70
2019-06-20T06:38:09.471Z,7.60
2019-06-20T06:40:40.708Z,11.70
2019-06-20T06:43:11.919Z,7.97
2019-06-20T06:45:43.190Z,11.25
2019-06-20T06:48:14.357Z,8.28
2019-06-20T06:50:45.604Z,10.30
2019-06-20T06:53:16.870Z,7.75
2019-06-20T06:55:48.077Z,8.93
2019-06-20T06:58:19.260Z,11.95
2019-06-20T07:00:50.505Z,7.92
2019-06-20T07:03:21.671Z,7.87
2019-06-20T07:05:52.898Z,7.85
2019-06-20T07:08:24.061Z,8.05
2019-06-20T07:10:56.350Z,7.67
2019-06-20T07:13:27.587Z,9.23
2019-06-20T07:15:59.876Z,8.90
2019-06-20T07:18:31.038Z,8.83
2019-06-20T07:21:02.284Z,9.85
2019-06-20T07:23:33.453Z,9.63
2019-06-20T07:26:04.659Z,8.63
2019-06-20T07:28:35.851Z,9.83
2019-06-20T07:31:07.044Z,8.60
2019-06-20T07:33:38.227Z,7.72
2019-06-20T07:36:09.402Z,7.78
2019-06-20T07:38:40.602Z,8.25
2019-06-20T07:41:11.786Z,9.53
2019-06-20T07:43:42.989Z,7.30
2019-06-20T07:46:14.159Z,7.80
2019-06-20T07:48:45.325Z,9.73
2019-06-20T07:51:16.521Z,7.22
2019-06-20T07:53:47.791Z,6.37
2019-06-20T07:56:18.977Z,7.15
2019-06-20T07:58:50.187Z,6.62
2019-06-20T08:01:21.392Z,6.75
2019-06-20T08:03:54.285Z,7.62
2019-06-20T08:06:25.522Z,6.53
2019-06-20T08:08:56.705Z,6.70
2019-06-20T08:11:27.902Z,5.37
2019-06-20T08:13:59.220Z,5.83
2019-06-20T08:16:31.503Z,6.08
2019-06-20T08:19:02.696Z,6.00
2019-06-20T08:21:33.973Z,5.70
2019-06-20T08:24:05.208Z,5.47
2019-06-20T08:26:36.500Z,5.45
2019-06-20T08:29:20.378Z,5.35
2019-06-20T08:31:40.562Z,5.35
2019-06-20T08:34:11.789Z,5.47
2019-06-20T08:36:42.935Z,5.08
2019-06-20T08:39:14.198Z,4.78
2019-06-20T08:41:45.397Z,5.12
2019-06-20T08:44:16.627Z,5.05
2019-06-20T08:46:47.891Z,5.00
2019-06-20T08:49:20.069Z,4.92
2019-06-20T08:51:51.240Z,8.30
2019-06-20T08:54:22.538Z,4.45
2019-06-20T08:56:54.549Z,4.33
2019-06-20T08:59:26.741Z,5.15
2019-06-20T09:01:59.997Z,4.37
2019-06-20T09:04:30.850Z,4.97
2019-06-20T09:09:33.516Z,5.50
2019-06-20T09:12:05.113Z,4.97
2019-06-20T09:14:36.528Z,5.25
2019-06-20T09:17:07.758Z,5.60
2019-06-20T09:19:38.917Z,5.40
2019-06-20T09:22:10.151Z,5.50
2019-06-20T09:24:41.349Z,6.50
2019-06-20T09:27:12.553Z,8.05
2019-06-20T09:29:43.773Z,6.37
2019-06-20T09:32:15.257Z,6.33
2019-06-20T09:34:46.571Z,5.25
2019-06-20T09:37:17.751Z,5.33
2019-06-20T09:39:48.941Z,7.87
2019-06-20T09:42:20.167Z,5.70
2019-06-20T09:44:52.640Z,5.33
2019-06-20T09:47:23.784Z,4.65
2019-06-20T09:49:56.021Z,4.62
2019-06-20T09:52:27.825Z,4.90
2019-06-20T09:54:58.948Z,6.15
2019-06-20T09:57:30.122Z,4.80
2019-06-20T10:00:09.654Z,5.12
2019-06-20T10:02:35.326Z,5.80
2019-06-20T10:05:07.188Z,5.47
2019-06-20T10:07:38.336Z,4.97
2019-06-20T10:10:09.926Z,4.08
2019-06-20T10:12:41.082Z,4.53
2019-06-20T10:15:23.558Z,5.00
2019-06-20T10:17:54.738Z,4.35
2019-06-20T10:20:26.126Z,4.10
2019-06-20T10:22:57.551Z,6.00
2019-06-20T10:25:29.982Z,4.85
2019-06-20T10:28:02.262Z,5.95
2019-06-20T10:30:33.477Z,4.25
2019-06-20T10:33:04.684Z,5.60
2019-06-20T10:35:35.869Z,4.67
2019-06-20T10:38:07.106Z,4.22
2019-06-20T10:40:38.343Z,4.62
2019-06-20T10:43:09.701Z,4.22
2019-06-20T10:45:40.958Z,5.33
2019-06-20T10:48:12.122Z,3.92
2019-06-20T10:50:44.042Z,4.10
2019-06-20T10:53:15.559Z,3.50
2019-06-20T10:55:47.005Z,3.80
2019-06-20T10:58:18.145Z,5.35
2019-06-20T11:00:50.410Z,5.05
2019-06-20T11:03:21.632Z,4.92
2019-06-20T11:05:52.847Z,5.58
2019-06-20T11:08:24.041Z,3.85
2019-06-20T11:10:55.219Z,3.40
2019-06-20T11:13:26.402Z,3.72
2019-06-20T11:15:57.557Z,4.58
2019-06-20T11:18:28.822Z,3.35
2019-06-20T11:20:59.938Z,4.00
2019-06-20T11:23:31.145Z,4.70
2019-06-20T11:26:02.440Z,3.72
2019-06-20T11:28:34.627Z,3.55
2019-06-20T11:31:05.838Z,5.70
2019-06-20T11:33:38.649Z,4.83
2019-06-20T11:36:11.017Z,3.90
2019-06-20T11:38:42.604Z,3.80
2019-06-20T11:41:13.879Z,3.50
2019-06-20T11:43:46.850Z,3.47
2019-06-20T11:46:18.172Z,4.58
2019-06-20T11:48:49.769Z,7.22
2019-06-20T11:51:20.967Z,3.92
2019-06-20T11:53:52.255Z,4.30
2019-06-20T11:56:23.726Z,7.35
2019-06-20T11:58:54.978Z,4.72
2019-06-20T12:01:32.845Z,4.65
2019-06-20T12:03:59.482Z,5.42
2019-06-20T12:06:31.328Z,4.35
2019-06-20T12:09:03.931Z,5.75
2019-06-20T12:11:35.678Z,5.85
2019-06-20T12:14:06.971Z,4.37
2019-06-20T12:16:40.537Z,4.95
2019-06-20T12:19:11.039Z,5.95
2019-06-20T12:21:44.557Z,5.35
2019-06-20T12:24:17.376Z,5.95
2019-06-20T12:26:49.069Z,6.17
2019-06-20T12:29:20.280Z,4.20
2019-06-20T12:31:52.799Z,4.12
2019-06-20T12:34:24.232Z,3.35
2019-06-20T12:36:56.672Z,3.67
2019-06-20T12:39:32.496Z,3.87
2019-06-20T12:42:03.799Z,3.83
2019-06-20T12:44:35.093Z,4.50
2019-06-20T12:47:06.329Z,5.30
2019-06-20T12:49:39.062Z,4.97
2019-06-20T12:52:10.783Z,4.58
2019-06-20T12:54:43.319Z,7.35
2019-06-20T12:57:14.557Z,5.25
2019-06-20T12:59:46.370Z,4.80
2019-06-20T13:02:17.810Z,5.30
2019-06-20T13:04:50.495Z,4.87
2019-06-20T13:07:22.189Z,6.12
2019-06-20T13:09:55.085Z,4.65
2019-06-20T13:12:26.542Z,4.78
2019-06-20T13:14:57.783Z,5.55
2019-06-20T13:17:28.986Z,5.30
2019-06-20T13:20:00.203Z,4.87
2019-06-20T13:22:31.435Z,4.50
2019-06-20T13:25:02.661Z,3.70
2019-06-20T13:27:33.865Z,3.50
2019-06-20T13:30:05.966Z,3.60
2019-06-20T13:32:40.242Z,3.90
2019-06-20T13:35:11.614Z,3.83
2019-06-20T13:37:43.536Z,3.67
2019-06-20T13:40:17.459Z,4.22
2019-06-20T13:42:50.114Z,4.47
2019-06-20T13:45:24.131Z,3.87
2019-06-20T13:47:55.561Z,3.70
2019-06-20T13:50:27.182Z,3.62
2019-06-20T13:52:58.356Z,4.10
2019-06-20T13:55:29.575Z,3.42
2019-06-20T13:58:00.764Z,3.50
2019-06-20T14:00:33.150Z,3.22
2019-06-20T14:03:04.492Z,3.65
2019-06-20T14:05:35.638Z,3.80
2019-06-20T14:08:06.904Z,4.42
2019-06-20T14:10:38.131Z,5.42
2019-06-20T14:13:18.741Z,4.78
2019-06-20T14:15:44.148Z,5.55
2019-06-20T14:18:15.608Z,4.60
2019-06-20T14:20:46.829Z,5.00
2019-06-20T14:23:18.069Z,5.12
2019-06-20T14:25:49.298Z,6.20
2019-06-20T14:28:20.525Z,5.58
2019-06-20T14:30:52.708Z,5.83
2019-06-20T14:33:23.968Z,5.53
2019-06-20T14:35:55.165Z,6.10
2019-06-20T14:38:26.437Z,6.25
2019-06-20T14:40:57.645Z,6.80
2019-06-20T14:43:28.854Z,5.55
2019-06-20T14:46:00.201Z,5.62
2019-06-20T14:48:31.437Z,5.58
2019-06-20T14:51:02.595Z,6.78
2019-06-20T14:53:33.904Z,7.10
2019-06-20T14:56:05.130Z,6.33
2019-06-20T14:58:36.299Z,6.03
2019-06-20T15:01:07.684Z,6.20
2019-06-20T15:03:38.912Z,6.22
2019-06-20T15:06:10.113Z,7.33
2019-06-20T15:08:41.318Z,6.47
2019-06-20T15:11:12.607Z,5.87
2019-06-20T15:13:44.423Z,7.15
2019-06-20T15:16:16.788Z,8.38
2019-06-20T15:18:50.162Z,6.62
2019-06-20T15:21:20.863Z,6.55
2019-06-20T15:23:52.558Z,6.30
2019-06-20T15:26:23.838Z,6.22
2019-06-20T15:28:55.569Z,6.40
2019-06-20T15:31:28.085Z,5.40
2019-06-20T15:33:59.315Z,6.58
2019-06-20T15:36:30.592Z,6.37
2019-06-20T15:39:01.772Z,6.58
2019-06-20T15:41:34.661Z,6.33
2019-06-20T15:44:05.926Z,6.17
2019-06-20T15:46:37.191Z,6.03
2019-06-20T15:49:16.213Z,6.78
2019-06-20T15:51:41.433Z,5.62
2019-06-20T15:54:12.678Z,6.08
2019-06-20T15:56:43.852Z,6.22
2019-06-20T15:59:15.036Z,6.22
2019-06-20T16:01:46.232Z,6.58
2019-06-20T16:04:17.408Z,6.03
2019-06-20T16:06:48.737Z,6.30
2019-06-20T16:09:19.939Z,6.03
2019-06-20T16:11:51.173Z,6.40
2019-06-20T16:14:22.335Z,6.62
2019-06-20T16:16:53.504Z,6.28
2019-06-20T16:19:24.741Z,6.92
2019-06-20T16:21:56.063Z,6.22
2019-06-20T16:24:27.223Z,5.33
2019-06-20T16:26:58.521Z,6.15
2019-06-20T16:29:29.749Z,5.62
2019-06-20T16:32:00.968Z,5.55
2019-06-20T16:34:32.266Z,5.72
2019-06-20T16:37:10.035Z,5.85
2019-06-20T16:39:36.477Z,5.90
2019-06-20T16:42:07.764Z,6.35
2019-06-20T16:44:39.011Z,6.12
2019-06-20T16:47:10.196Z,6.35
2019-06-20T16:49:41.541Z,6.25
2019-06-20T16:52:12.745Z,6.70
2019-06-20T16:54:44.908Z,6.45
2019-06-20T16:57:16.142Z,6.72
2019-06-20T16:59:47.354Z,7.60
2019-06-20T17:02:18.518Z,7.60
2019-06-20T17:04:49.717Z,7.10
2019-06-20T17:07:20.963Z,6.17
2019-06-20T17:09:52.159Z,6.60
2019-06-20T17:12:23.354Z,11.55
2019-06-20T17:14:54.568Z,9.43
2019-06-20T17:17:25.745Z,7.20
2019-06-20T17:19:56.971Z,9.60
2019-06-20T17:22:28.166Z,31.70
2019-06-20T17:24:59.349Z,12.47
2019-06-20T17:27:30.543Z,7.92
2019-06-20T17:30:01.995Z,8.95
2019-06-20T17:32:33.270Z,8.30
2019-06-20T17:35:05.135Z,9.10
2019-06-20T17:37:36.278Z,7.97
2019-06-20T17:40:07.600Z,7.65
2019-06-20T17:42:38.855Z,10.82
2019-06-20T17:45:10.308Z,9.43
2019-06-20T17:47:41.678Z,11.63
2019-06-20T17:50:13.437Z,7.70
2019-06-20T17:52:44.597Z,8.48
2019-06-20T17:55:15.809Z,12.80
2019-06-20T17:57:47.018Z,7.55
2019-06-20T18:00:18.688Z,27.80
2019-06-20T18:02:49.885Z,29.10
2019-06-20T18:05:21.158Z,15.45
2019-06-20T18:07:52.363Z,9.28
2019-06-20T18:10:23.674Z,8.88
2019-06-20T18:12:54.842Z,9.63
2019-06-20T18:15:26.150Z,8.68
2019-06-20T18:17:58.302Z,8.35
2019-06-20T18:20:29.448Z,9.68
2019-06-20T18:23:00.692Z,7.87
2019-06-20T18:25:31.981Z,9.00
2019-06-20T18:28:03.189Z,8.00
2019-06-20T18:30:40.714Z,8.50
2019-06-20T18:33:12.061Z,7.22
2019-06-20T18:35:44.910Z,9.95
2019-06-20T18:38:16.047Z,14.83
2019-06-20T18:40:47.645Z,9.90
2019-06-20T18:43:18.866Z,9.18
2019-06-20T18:45:50.100Z,8.30
2019-06-20T18:48:21.289Z,9.00
2019-06-20T18:50:52.579Z,10.63
2019-06-20T18:53:23.835Z,9.23
2019-06-20T18:55:55.054Z,11.60
2019-06-20T18:58:26.268Z,8.20
2019-06-20T19:00:57.536Z,8.68
2019-06-20T19:03:30.393Z,9.75
2019-06-20T19:06:01.642Z,8.95
2019-06-20T19:08:32.759Z,8.83
2019-06-20T19:11:03.962Z,8.80
2019-06-20T19:13:35.334Z,9.80
2019-06-20T19:16:06.579Z,9.43
2019-06-20T19:18:37.818Z,8.88
2019-06-20T19:21:09.017Z,9.83
2019-06-20T19:23:40.166Z,9.83
2019-06-20T19:26:11.359Z,10.45
2019-06-20T19:28:42.622Z,10.30
2019-06-20T19:31:14.843Z,9.75
2019-06-20T19:33:46.049Z,13.22
2019-06-20T19:36:17.361Z,13.13
2019-06-20T19:38:48.613Z,12.20
2019-06-20T19:41:19.833Z,12.25
2019-06-20T19:43:51.178Z,10.95
2019-06-20T19:46:22.346Z,11.35
2019-06-20T19:48:53.531Z,10.78
2019-06-20T19:51:24.765Z,10.70
2019-06-20T19:53:55.981Z,13.43
2019-06-20T19:56:27.441Z,11.00
2019-06-20T19:58:58.676Z,11.22
2019-06-20T20:01:29.887Z,10.95
2019-06-20T20:04:04.338Z,11.05
2019-06-20T20:06:37.202Z,10.63
2019-06-20T20:09:11.586Z,9.85
2019-06-20T20:11:43.818Z,11.43
2019-06-20T20:14:15.700Z,9.83
2019-06-20T20:16:47.671Z,10.05
2019-06-20T20:19:19.038Z,10.10
2019-06-20T20:21:50.402Z,9.65
2019-06-20T20:24:21.822Z,11.28
2019-06-20T20:26:53.112Z,11.28
2019-06-20T20:29:24.430Z,11.57
2019-06-20T20:31:55.686Z,10.82
2019-06-20T20:34:26.884Z,12.43
2019-06-20T20:36:58.072Z,9.20
2019-06-20T20:39:29.441Z,9.23
2019-06-20T20:42:00.640Z,7.00
2019-06-20T20:44:32.957Z,14.83
2019-06-20T20:47:04.147Z,7.42
2019-06-20T20:49:35.390Z,9.58
2019-06-20T20:52:06.736Z,12.05
2019-06-20T20:54:37.906Z,11.22
2019-06-20T20:57:09.313Z,7.65
2019-06-20T20:59:40.558Z,14.33
2019-06-20T21:02:11.768Z,8.98
2019-06-20T21:04:43.062Z,10.78
2019-06-20T21:07:14.401Z,8.68
2019-06-20T21:09:45.683Z,12.00
2019-06-20T21:12:16.888Z,10.63
2019-06-20T21:14:48.081Z,9.75
2019-06-20T21:17:19.257Z,9.68
2019-06-20T21:19:50.512Z,11.83
2019-06-20T21:22:21.744Z,11.97
2019-06-20T21:24:53.010Z,10.93
2019-06-20T21:27:24.283Z,9.38
2019-06-20T21:29:55.474Z,10.72
2019-06-20T21:32:26.677Z,9.35
2019-06-20T21:34:57.875Z,9.53
2019-06-20T21:37:30.088Z,8.80
2019-06-20T21:40:01.279Z,8.23
2019-06-20T21:42:32.653Z,7.10
2019-06-20T21:45:04.551Z,8.33
2019-06-20T21:47:35.786Z,7.45
2019-06-20T21:50:07.399Z,7.33
2019-06-20T21:52:39.697Z,8.35
2019-06-20T21:55:11.140Z,7.72
2019-06-20T21:57:42.344Z,5.75
2019-06-20T22:00:18.404Z,6.90
2019-06-20T22:02:51.349Z,5.83
2019-06-20T22:05:22.626Z,6.83
2019-06-20T22:07:53.893Z,5.50
2019-06-20T22:10:25.129Z,5.33
2019-06-20T22:12:57.143Z,3.90
2019-06-20T22:15:28.555Z,4.12
2019-06-20T22:17:59.764Z,3.90
2019-06-20T22:20:31.572Z,7.33
2019-06-20T22:23:02.778Z,6.60
2019-06-20T22:25:33.996Z,7.30
2019-06-20T22:28:05.346Z,12.45
2019-06-20T22:30:53.346Z,8.83
2019-06-20T22:33:24.545Z,9.33
2019-06-20T22:35:55.998Z,7.25
2019-06-20T22:38:27.551Z,8.50
2019-06-20T22:40:58.897Z,8.90
2019-06-20T22:43:30.167Z,8.48
2019-06-20T22:46:01.430Z,8.83
2019-06-20T22:48:32.618Z,8.00
2019-06-20T22:51:03.816Z,10.90
2019-06-20T22:53:35.019Z,11.30
2019-06-20T22:56:06.254Z,8.68
2019-06-20T22:58:37.476Z,10.25
2019-06-20T23:01:08.707Z,8.93
2019-06-20T23:03:39.927Z,9.95
2019-06-20T23:06:11.210Z,11.88
2019-06-20T23:08:42.537Z,9.48
2019-06-20T23:11:13.829Z,11.03
2019-06-20T23:13:45.376Z,11.73
2019-06-20T23:16:16.703Z,11.35
2019-06-20T23:18:47.983Z,14.05
2019-06-20T23:21:19.170Z,16.60
2019-06-20T23:23:50.475Z,13.93
2019-06-20T23:26:21.643Z,16.95
2019-06-20T23:29:15.438Z,14.23
2019-06-20T23:31:46.729Z,14.03
2019-06-20T23:34:17.957Z,13.83
2019-06-20T23:36:49.377Z,15.78
2019-06-20T23:39:20.617Z,10.98
2019-06-20T23:41:51.842Z,11.55
2019-06-20T23:44:23.061Z,9.38
2019-06-20T23:46:54.380Z,8.50
2019-06-20T23:49:25.612Z,8.88
2019-06-20T23:52:03.142Z,7.05
2019-06-20T23:54:34.318Z,6.87
2019-06-20T23:57:05.743Z,7.50
2019-06-20T23:59:37.053Z,7.62
